Time;durP1;ratioP1;P1;durP2;ratioP2;P2;SDS_P1;SDS_P2;PMS_P1;PMS_P2;Temp;Humidity;BMP_temperature;BMP_pressure;BME280_temperature;BME280_humidity;BME280_pressure;Samples;Min_cycle;Max_cycle;Signal;HPM_P1;HPM_P2
2022/01/19 00:00:07;;;;;;;125.13;49.45;;;;;;;;;;4804781;30;20051;-79
2022/01/19 00:02:55;;;;;;;107.60;43.13;;;;;;;;;;4804014;30;20044;-82
2022/01/19 00:05:42;;;;;;;88.00;38.10;;;;;;;;;;4804170;30;20055;-79
2022/01/19 00:08:28;;;;;;;55.97;24.80;;;;;;;;;;4798199;29;20067;-79
2022/01/19 00:11:14;;;;;;;54.90;23.85;;;;;;;;;;4821720;29;20047;-79
2022/01/19 00:13:59;;;;;;;76.90;30.40;;;;;;;;;;4820311;29;20042;-79
2022/01/19 00:16:48;;;;;;;62.15;27.50;;;;;;;;;;4809160;29;20051;-80
2022/01/19 00:19:33;;;;;;;53.10;25.15;;;;;;;;;;4818716;29;20055;-79
2022/01/19 00:22:19;;;;;;;64.50;26.02;;;;;;;;;;4820302;29;20405;-79
2022/01/19 00:25:07;;;;;;;74.05;27.98;;;;;;;;;;4821301;29;20058;-81
2022/01/19 00:27:52;;;;;;;64.18;25.80;;;;;;;;;;4818180;29;20055;-80
2022/01/19 00:30:39;;;;;;;54.33;21.52;;;;;;;;;;4814451;29;20063;-80
2022/01/19 00:33:25;;;;;;;48.85;19.67;;;;;;;;;;4808451;29;20482;-80
2022/01/19 00:36:11;;;;;;;38.13;16.00;;;;;;;;;;4817879;29;20050;-80
2022/01/19 00:38:57;;;;;;;35.55;16.73;;;;;;;;;;4816470;29;20046;-80
2022/01/19 00:41:42;;;;;;;38.85;15.85;;;;;;;;;;4815477;29;20046;-79
2022/01/19 00:44:30;;;;;;;25.13;11.75;;;;;;;;;;4819069;29;20047;-81
2022/01/19 00:47:17;;;;;;;39.20;17.13;;;;;;;;;;4816978;29;20406;-80
2022/01/19 00:50:04;;;;;;;46.08;20.42;;;;;;;;;;4797133;29;20050;-80
2022/01/19 00:52:52;;;;;;;100.30;44.97;;;;;;;;;;4809304;29;20047;-79
2022/01/19 00:55:38;;;;;;;36.00;14.80;;;;;;;;;;4809623;29;20050;-78
2022/01/19 00:58:25;;;;;;;44.05;16.83;;;;;;;;;;4809601;29;20047;-78
2022/01/19 01:01:12;;;;;;;43.03;22.02;;;;;;;;;;4809183;29;20050;-78
2022/01/19 01:03:57;;;;;;;37.45;16.77;;;;;;;;;;4802095;29;20394;-78
2022/01/19 01:06:42;;;;;;;28.50;14.85;;;;;;;;;;4809010;29;20409;-79
2022/01/19 01:09:28;;;;;;;514.22;283.75;;;;;;;;;;4791172;30;20051;-79
2022/01/19 01:12:20;;;;;;;36.78;16.45;;;;;;;;;;4778196;30;20055;-79
2022/01/19 01:18:31;;;;;;;30.23;10.63;;;;;;;;;;4724703;30;20065;-79
2022/01/19 01:21:18;;;;;;;43.45;16.92;;;;;;;;;;4783192;29;20043;-79
2022/01/19 01:24:04;;;;;;;36.15;14.20;;;;;;;;;;4783586;29;20051;-80
2022/01/19 01:26:50;;;;;;;37.78;12.07;;;;;;;;;;4786240;29;20051;-80
2022/01/19 01:29:35;;;;;;;28.27;11.68;;;;;;;;;;4784753;29;20048;-80
2022/01/19 01:32:21;;;;;;;40.20;14.23;;;;;;;;;;4791564;30;20478;-80
2022/01/19 01:35:09;;;;;;;33.15;11.23;;;;;;;;;;4797012;29;20051;-81
2022/01/19 01:37:53;;;;;;;32.28;10.90;;;;;;;;;;4790952;30;20055;-80
2022/01/19 01:40:40;;;;;;;25.45;10.57;;;;;;;;;;4791160;30;20047;-79
2022/01/19 01:43:27;;;;;;;21.50;7.88;;;;;;;;;;4782918;29;20494;-79
2022/01/19 01:46:27;;;;;;;28.73;8.93;;;;;;;;;;4790553;29;20051;-80
2022/01/19 01:55:31;;;;;;;25.75;10.60;;;;;;;;;;4783060;29;20047;-80
2022/01/19 01:58:18;;;;;;;36.45;13.75;;;;;;;;;;4790101;30;20052;-79
2022/01/19 02:01:14;;;;;;;117.40;39.13;;;;;;;;;;4782870;29;20063;-79
2022/01/19 02:04:01;;;;;;;26.63;9.82;;;;;;;;;;4782675;29;20055;-79
2022/01/19 02:10:03;;;;;;;35.28;15.10;;;;;;;;;;4800784;29;20047;-81
2022/01/19 02:16:25;;;;;;;45.05;19.08;;;;;;;;;;4800784;29;20047;-79
2022/01/19 02:22:19;;;;;;;38.45;15.68;;;;;;;;;;4800861;29;20058;-81
2022/01/19 02:25:08;;;;;;;43.83;16.98;;;;;;;;;;4800552;29;20047;-81
2022/01/19 02:40:16;;;;;;;35.05;13.70;;;;;;;;;;4813425;29;20055;-81
2022/01/19 02:51:58;;;;;;;45.63;20.33;;;;;;;;;;4812971;29;20054;-81
2022/01/19 02:54:44;;;;;;;48.28;18.30;;;;;;;;;;4807730;29;20054;-81
2022/01/19 02:57:35;;;;;;;31.73;13.18;;;;;;;;;;4800789;29;20051;-81
2022/01/19 03:09:13;;;;;;;30.90;11.82;;;;;;;;;;4793849;29;20421;-81
2022/01/19 03:11:59;;;;;;;40.20;13.75;;;;;;;;;;4800067;29;20054;-81
2022/01/19 03:14:45;;;;;;;43.60;14.98;;;;;;;;;;4807648;29;20046;-81
2022/01/19 03:17:32;;;;;;;33.35;13.98;;;;;;;;;;4799135;29;20494;-81
2022/01/19 03:20:17;;;;;;;25.17;12.02;;;;;;;;;;4807530;29;20489;-81
2022/01/19 03:23:09;;;;;;;30.73;12.27;;;;;;;;;;4807636;29;20050;-81
2022/01/19 03:25:56;;;;;;;43.83;17.23;;;;;;;;;;4799651;29;20055;-80
2022/01/19 03:28:42;;;;;;;39.80;15.85;;;;;;;;;;4799706;29;20051;-80
2022/01/19 03:31:28;;;;;;;28.58;12.77;;;;;;;;;;4799466;29;20055;-81
2022/01/19 03:34:15;;;;;;;24.50;11.52;;;;;;;;;;4807334;29;20059;-80
2022/01/19 03:37:04;;;;;;;25.48;10.73;;;;;;;;;;4800334;29;20046;-81
2022/01/19 03:39:49;;;;;;;28.38;11.77;;;;;;;;;;4799712;29;20047;-81
2022/01/19 03:42:35;;;;;;;27.85;10.82;;;;;;;;;;4799924;29;20055;-81
2022/01/19 03:45:21;;;;;;;14.57;5.90;;;;;;;;;;4799023;29;20046;-81
2022/01/19 03:51:15;;;;;;;20.05;6.00;;;;;;;;;;4796714;29;20050;-81
2022/01/19 03:54:00;;;;;;;17.35;5.80;;;;;;;;;;4800963;29;20482;-81
2022/01/19 03:56:47;;;;;;;12.93;5.45;;;;;;;;;;4799293;29;20047;-81
2022/01/19 03:59:33;;;;;;;15.10;5.20;;;;;;;;;;4799320;29;20051;-81
2022/01/19 04:02:19;;;;;;;12.25;4.47;;;;;;;;;;4807380;29;20043;-81
2022/01/19 04:05:13;;;;;;;6.57;3.28;;;;;;;;;;4798958;29;20406;-81
2022/01/19 04:08:01;;;;;;;15.60;4.88;;;;;;;;;;4796950;29;20054;-81
2022/01/19 04:10:45;;;;;;;29.13;11.25;;;;;;;;;;4803306;29;20042;-81
2022/01/19 04:13:57;;;;;;;30.15;13.23;;;;;;;;;;4816045;29;20051;-81
2022/01/19 04:16:38;;;;;;;39.40;15.45;;;;;;;;;;4802701;29;20502;-81
2022/01/19 04:19:30;;;;;;;41.65;16.35;;;;;;;;;;4814155;29;20058;-81
2022/01/19 04:22:30;;;;;;;61.40;20.55;;;;;;;;;;4806642;29;20489;-80
2022/01/19 04:25:23;;;;;;;59.70;21.50;;;;;;;;;;4803311;29;20042;-81
2022/01/19 04:28:08;;;;;;;53.72;18.75;;;;;;;;;;4802308;29;20505;-81
2022/01/19 04:30:57;;;;;;;43.00;17.58;;;;;;;;;;4802975;29;20054;-81
2022/01/19 04:33:44;;;;;;;43.80;15.82;;;;;;;;;;4802503;29;20047;-81
2022/01/19 04:43:48;;;;;;;41.50;15.93;;;;;;;;;;4802621;29;20051;-80
2022/01/19 05:04:08;;;;;;;28.55;11.15;;;;;;;;;;4811176;29;20031;-81
2022/01/19 05:16:09;;;;;;;37.85;15.25;;;;;;;;;;4802054;29;20051;-80
2022/01/19 05:18:55;;;;;;;39.67;15.32;;;;;;;;;;4801220;29;20055;-80
2022/01/19 05:21:41;;;;;;;43.83;16.58;;;;;;;;;;4800363;29;20406;-79
2022/01/19 05:24:30;;;;;;;36.95;14.18;;;;;;;;;;4788868;29;20054;-81
2022/01/19 05:27:41;;;;;;;41.78;15.45;;;;;;;;;;4809576;29;20054;-80
2022/01/19 05:30:29;;;;;;;39.25;16.90;;;;;;;;;;4801425;29;20070;-80
2022/01/19 05:33:19;;;;;;;41.63;18.20;;;;;;;;;;4815096;29;20043;-81
2022/01/19 05:36:05;;;;;;;38.10;16.02;;;;;;;;;;4788897;29;20051;-81
2022/01/19 05:39:18;;;;;;;29.15;13.05;;;;;;;;;;4802484;29;20058;-81
2022/01/19 05:42:26;;;;;;;30.95;14.48;;;;;;;;;;4801019;29;20051;-81
2022/01/19 05:45:11;;;;;;;33.28;14.55;;;;;;;;;;4811532;29;20042;-80
2022/01/19 05:47:59;;;;;;;37.95;15.70;;;;;;;;;;4825049;29;20050;-80
2022/01/19 05:50:44;;;;;;;41.00;15.05;;;;;;;;;;4823857;29;20055;-80
2022/01/19 05:53:33;;;;;;;49.35;19.10;;;;;;;;;;4823587;29;20059;-80
2022/01/19 05:56:21;;;;;;;77.05;26.92;;;;;;;;;;4821999;29;20038;-80
2022/01/19 05:59:30;;;;;;;97.07;35.88;;;;;;;;;;4816117;29;20047;-81
2022/01/19 06:02:16;;;;;;;86.60;35.85;;;;;;;;;;4801324;29;20050;-81
2022/01/19 06:05:06;;;;;;;90.18;37.13;;;;;;;;;;4809556;29;20059;-81
2022/01/19 06:08:17;;;;;;;66.47;27.63;;;;;;;;;;4787349;29;20054;-80
2022/01/19 06:11:13;;;;;;;43.60;20.63;;;;;;;;;;4808550;29;20043;-80
2022/01/19 06:14:01;;;;;;;51.53;20.05;;;;;;;;;;4800869;29;20064;-80
2022/01/19 06:16:47;;;;;;;49.47;20.13;;;;;;;;;;4801425;29;20043;-80
2022/01/19 06:19:34;;;;;;;52.25;21.27;;;;;;;;;;4800768;29;20072;-80
2022/01/19 06:22:21;;;;;;;51.95;22.10;;;;;;;;;;4800588;29;20062;-80
2022/01/19 06:25:07;;;;;;;52.42;24.15;;;;;;;;;;4800983;29;20042;-80
2022/01/19 06:27:53;;;;;;;64.93;28.88;;;;;;;;;;4800861;29;20050;-80
2022/01/19 06:30:39;;;;;;;91.20;36.45;;;;;;;;;;4789795;29;20058;-80
2022/01/19 06:33:24;;;;;;;121.13;42.85;;;;;;;;;;4800526;29;20058;-81
2022/01/19 06:36:10;;;;;;;110.80;39.50;;;;;;;;;;4800795;29;20047;-81
2022/01/19 06:39:20;;;;;;;88.43;36.17;;;;;;;;;;4817137;29;20054;-80
2022/01/19 06:42:10;;;;;;;72.90;34.72;;;;;;;;;;4826667;29;20054;-80
2022/01/19 06:44:58;;;;;;;71.25;33.67;;;;;;;;;;4817159;29;20043;-80
2022/01/19 06:47:43;;;;;;;84.07;36.60;;;;;;;;;;4817284;29;20054;-81
2022/01/19 06:50:31;;;;;;;82.72;37.88;;;;;;;;;;4802236;29;20051;-81
2022/01/19 06:53:19;;;;;;;124.03;53.25;;;;;;;;;;4800726;29;20401;-81
2022/01/19 06:56:17;;;;;;;147.07;63.47;;;;;;;;;;4813223;29;20498;-81
2022/01/19 06:59:04;;;;;;;140.07;60.28;;;;;;;;;;4813618;29;20047;-81
2022/01/19 07:02:00;;;;;;;167.32;64.95;;;;;;;;;;4799780;29;20054;-81
2022/01/19 07:05:00;;;;;;;176.55;68.00;;;;;;;;;;4800584;29;20055;-81
2022/01/19 07:08:15;;;;;;;177.85;65.93;;;;;;;;;;4778579;29;20035;-81
2022/01/19 07:11:01;;;;;;;180.38;77.50;;;;;;;;;;4800057;29;20059;-81
2022/01/19 07:13:46;;;;;;;186.18;83.32;;;;;;;;;;4787939;29;20062;-82
2022/01/19 07:16:32;;;;;;;160.35;76.25;;;;;;;;;;4800997;29;20066;-82
2022/01/19 07:19:18;;;;;;;135.20;69.03;;;;;;;;;;4813266;29;20050;-81
2022/01/19 07:22:05;;;;;;;133.30;64.50;;;;;;;;;;4799660;29;20047;-80
2022/01/19 07:24:52;;;;;;;129.65;62.35;;;;;;;;;;4799112;29;20055;-81
2022/01/19 07:27:37;;;;;;;121.03;56.63;;;;;;;;;;4799064;29;20054;-80
2022/01/19 07:30:24;;;;;;;132.55;55.65;;;;;;;;;;4798956;29;20058;-80
2022/01/19 07:33:11;;;;;;;148.45;66.63;;;;;;;;;;4786604;29;20054;-83
2022/01/19 07:35:57;;;;;;;118.22;55.10;;;;;;;;;;4799629;29;20051;-80
2022/01/19 07:38:42;;;;;;;102.68;47.95;;;;;;;;;;4785756;29;20062;-80
2022/01/19 07:41:28;;;;;;;97.53;44.97;;;;;;;;;;4806909;29;20050;-81
2022/01/19 07:44:15;;;;;;;75.75;35.97;;;;;;;;;;4798601;29;20051;-82
2022/01/19 07:47:23;;;;;;;73.28;31.90;;;;;;;;;;4787314;29;20051;-81
2022/01/19 07:50:29;;;;;;;71.78;32.75;;;;;;;;;;4812785;29;20051;-82
2022/01/19 07:53:41;;;;;;;38.40;18.33;;;;;;;;;;4795971;29;20097;-82
2022/01/19 07:56:37;;;;;;;43.05;22.45;;;;;;;;;;4798242;29;20055;-81
2022/01/19 07:59:22;;;;;;;49.25;23.50;;;;;;;;;;4805486;29;20047;-81
2022/01/19 08:02:13;;;;;;;46.03;22.67;;;;;;;;;;4799050;29;20051;-81
2022/01/19 08:05:21;;;;;;;46.08;23.15;;;;;;;;;;4806067;29;20055;-81
2022/01/19 08:08:11;;;;;;;70.97;30.15;;;;;;;;;;4783239;29;20050;-80
2022/01/19 08:10:58;;;;;;;86.68;36.97;;;;;;;;;;4798938;29;20405;-81
2022/01/19 08:13:43;;;;;;;79.38;35.03;;;;;;;;;;4798512;29;20055;-81
2022/01/19 08:16:29;;;;;;;51.72;23.05;;;;;;;;;;4798669;29;20043;-81
2022/01/19 08:19:14;;;;;;;52.35;24.27;;;;;;;;;;4798701;29;20042;-80
2022/01/19 08:22:00;;;;;;;31.50;16.13;;;;;;;;;;4798452;29;20058;-81
2022/01/19 08:24:49;;;;;;;46.67;20.65;;;;;;;;;;4806230;29;20054;-80
2022/01/19 08:27:38;;;;;;;24.90;11.80;;;;;;;;;;4805672;29;20051;-82
2022/01/19 08:30:25;;;;;;;32.75;13.30;;;;;;;;;;4797131;29;20426;-82
2022/01/19 08:33:11;;;;;;;47.20;19.45;;;;;;;;;;4797095;29;20439;-82
2022/01/19 08:36:10;;;;;;;47.03;20.75;;;;;;;;;;4797022;29;20058;-82
2022/01/19 08:39:20;;;;;;;52.05;21.75;;;;;;;;;;4804597;29;20050;-81
2022/01/19 08:42:09;;;;;;;43.05;19.67;;;;;;;;;;4785774;29;20087;-82
2022/01/19 08:45:05;;;;;;;43.95;18.92;;;;;;;;;;4799360;29;20051;-81
2022/01/19 08:47:52;;;;;;;33.80;13.80;;;;;;;;;;4803578;29;20059;-83
2022/01/19 08:50:56;;;;;;;47.38;20.58;;;;;;;;;;4808527;29;20050;-82
2022/01/19 08:53:49;;;;;;;30.10;12.77;;;;;;;;;;4798532;29;20435;-75
2022/01/19 08:57:00;;;;;;;28.67;12.70;;;;;;;;;;4813466;29;20043;-75
2022/01/19 08:59:45;;;;;;;39.00;15.30;;;;;;;;;;4809397;29;20043;-72
2022/01/19 09:02:34;;;;;;;33.65;11.38;;;;;;;;;;4814985;29;20439;-72
2022/01/19 09:05:20;;;;;;;21.42;10.02;;;;;;;;;;4815154;29;20051;-72
2022/01/19 09:08:08;;;;;;;22.85;9.98;;;;;;;;;;4798541;29;20490;-72
2022/01/19 09:10:57;;;;;;;24.77;11.48;;;;;;;;;;4801217;29;20050;-73
2022/01/19 09:13:44;;;;;;;24.13;9.55;;;;;;;;;;4808879;29;20047;-72
2022/01/19 09:16:29;;;;;;;28.88;10.13;;;;;;;;;;4808620;29;20090;-72
2022/01/19 09:19:15;;;;;;;21.95;8.98;;;;;;;;;;4814442;29;20051;-72
2022/01/19 09:22:02;;;;;;;21.33;9.45;;;;;;;;;;4801352;29;20418;-72
2022/01/19 09:24:47;;;;;;;17.35;6.43;;;;;;;;;;4814108;29;20051;-72
2022/01/19 09:27:33;;;;;;;23.20;9.15;;;;;;;;;;4814553;29;20059;-72
2022/01/19 09:30:24;;;;;;;28.00;11.70;;;;;;;;;;4814634;29;20054;-73
2022/01/19 09:33:11;;;;;;;26.38;11.15;;;;;;;;;;4808189;29;20047;-74
2022/01/19 09:38:43;;;;;;;31.63;12.82;;;;;;;;;;4807866;29;20042;-74
2022/01/19 09:41:29;;;;;;;36.47;13.82;;;;;;;;;;4814475;29;20047;-73
2022/01/19 09:44:14;;;;;;;29.45;11.85;;;;;;;;;;4814190;29;20405;-73
2022/01/19 09:46:59;;;;;;;36.97;15.50;;;;;;;;;;4807375;29;20050;-73
2022/01/19 09:49:46;;;;;;;30.33;12.40;;;;;;;;;;4808399;29;20046;-73
2022/01/19 09:52:38;;;;;;;25.40;11.40;;;;;;;;;;4813906;29;20055;-73
2022/01/19 09:55:24;;;;;;;24.77;7.70;;;;;;;;;;4808485;29;20486;-73
2022/01/19 09:58:09;;;;;;;24.95;8.77;;;;;;;;;;4807743;29;20431;-74
2022/01/19 10:00:57;;;;;;;21.70;10.40;;;;;;;;;;4813394;29;20051;-71
2022/01/19 10:03:44;;;;;;;29.30;12.40;;;;;;;;;;4808159;29;20042;-74
2022/01/19 10:06:30;;;;;;;28.73;12.40;;;;;;;;;;4813767;29;20067;-72
2022/01/19 10:09:25;;;;;;;31.67;11.45;;;;;;;;;;4806922;29;20059;-74
2022/01/19 10:18:36;;;;;;;13.57;5.63;;;;;;;;;;4807679;29;20051;-71
2022/01/19 10:21:23;;;;;;;22.92;9.98;;;;;;;;;;4794233;29;20502;-70
2022/01/19 10:24:13;;;;;;;22.38;9.05;;;;;;;;;;4813893;29;20402;-70
2022/01/19 10:27:25;;;;;;;21.15;8.27;;;;;;;;;;4813886;29;20490;-71
2022/01/19 10:30:17;;;;;;;23.45;8.85;;;;;;;;;;4806955;29;20513;-71
2022/01/19 10:33:04;;;;;;;20.60;8.32;;;;;;;;;;4813075;29;20054;-71
2022/01/19 10:35:50;;;;;;;20.30;9.30;;;;;;;;;;4806762;29;20047;-73
2022/01/19 10:38:38;;;;;;;28.50;10.52;;;;;;;;;;4799804;29;20043;-71
2022/01/19 10:41:23;;;;;;;27.88;12.38;;;;;;;;;;4813160;29;20047;-71
2022/01/19 10:44:28;;;;;;;22.98;9.13;;;;;;;;;;4806812;29;20054;-71
2022/01/19 10:47:17;;;;;;;27.85;11.90;;;;;;;;;;4813572;29;20063;-71
2022/01/19 10:50:03;;;;;;;16.55;8.70;;;;;;;;;;4812839;29;20051;-71
2022/01/19 10:52:56;;;;;;;20.52;8.43;;;;;;;;;;4806663;29;20054;-74
2022/01/19 10:55:45;;;;;;;16.10;8.63;;;;;;;;;;4812803;29;20043;-71
2022/01/19 10:58:30;;;;;;;29.67;10.90;;;;;;;;;;4812819;29;20058;-71
2022/01/19 11:01:33;;;;;;;20.83;8.77;;;;;;;;;;4812750;29;20046;-71
2022/01/19 11:04:33;;;;;;;27.35;10.05;;;;;;;;;;4806402;29;20043;-71
2022/01/19 11:07:19;;;;;;;19.98;8.30;;;;;;;;;;4809957;29;20058;-71
2022/01/19 11:10:13;;;;;;;24.75;9.02;;;;;;;;;;4811443;29;20043;-72
2022/01/19 11:12:59;;;;;;;25.98;9.75;;;;;;;;;;4805955;29;20406;-73
2022/01/19 11:15:47;;;;;;;27.08;10.55;;;;;;;;;;4806543;29;20043;-73
2022/01/19 11:18:37;;;;;;;15.10;7.90;;;;;;;;;;4811101;29;20453;-72
2022/01/19 11:21:31;;;;;;;23.95;7.68;;;;;;;;;;4807074;29;20059;-71
2022/01/19 11:25:00;;;;;;;22.13;7.47;;;;;;;;;;4806571;29;20051;-72
2022/01/19 11:27:47;;;;;;;19.08;8.20;;;;;;;;;;4798166;29;20042;-72
2022/01/19 11:30:35;;;;;;;21.40;8.20;;;;;;;;;;4792036;29;20046;-74
2022/01/19 11:33:25;;;;;;;11.07;5.20;;;;;;;;;;4811025;29;20058;-72
2022/01/19 11:36:43;;;;;;;8.90;4.70;;;;;;;;;;4811891;29;20481;-72
2022/01/19 11:39:30;;;;;;;12.23;6.28;;;;;;;;;;4811717;29;20058;-72
2022/01/19 11:42:20;;;;;;;13.00;5.18;;;;;;;;;;4806050;29;20398;-72
2022/01/19 11:45:28;;;;;;;24.48;9.00;;;;;;;;;;4812413;29;20405;-73
2022/01/19 11:48:22;;;;;;;16.20;6.03;;;;;;;;;;4811938;29;20050;-73
2022/01/19 11:51:31;;;;;;;20.42;7.30;;;;;;;;;;4806487;29;20043;-71
2022/01/19 11:54:21;;;;;;;5.68;3.65;;;;;;;;;;4805234;29;20131;-73
2022/01/19 11:57:15;;;;;;;14.05;5.68;;;;;;;;;;4806122;29;20062;-72
2022/01/19 12:00:20;;;;;;;14.52;5.30;;;;;;;;;;4811271;29;20414;-73
2022/01/19 12:03:29;;;;;;;34.13;14.33;;;;;;;;;;4805273;29;20051;-72
2022/01/19 12:06:36;;;;;;;22.20;12.57;;;;;;;;;;4811894;29;20054;-72
2022/01/19 12:09:22;;;;;;;17.15;6.32;;;;;;;;;;4787846;30;20059;-73
2022/01/19 12:12:15;;;;;;;16.17;5.55;;;;;;;;;;4787818;30;20047;-73
2022/01/19 12:15:06;;;;;;;20.40;8.25;;;;;;;;;;4787447;30;20051;-76
2022/01/19 12:18:07;;;;;;;15.95;7.35;;;;;;;;;;4793325;30;20055;-73
2022/01/19 12:20:52;;;;;;;16.90;6.00;;;;;;;;;;4792759;30;20055;-72
2022/01/19 12:23:40;;;;;;;17.85;6.53;;;;;;;;;;4786713;30;20044;-73
2022/01/19 12:26:50;;;;;;;35.17;13.27;;;;;;;;;;4779487;30;20498;-72
2022/01/19 12:29:39;;;;;;;17.08;7.45;;;;;;;;;;4792977;29;20047;-73
2022/01/19 12:32:29;;;;;;;16.02;7.10;;;;;;;;;;4791823;30;20047;-72
2022/01/19 12:35:20;;;;;;;20.30;8.27;;;;;;;;;;4797846;29;20059;-73
2022/01/19 12:38:18;;;;;;;17.55;7.72;;;;;;;;;;4797332;29;20047;-72
2022/01/19 12:41:07;;;;;;;17.58;6.80;;;;;;;;;;4797088;29;20051;-74
2022/01/19 12:43:53;;;;;;;18.83;5.88;;;;;;;;;;4792844;30;20047;-73
2022/01/19 12:46:41;;;;;;;18.60;8.35;;;;;;;;;;4798009;29;20058;-73
2022/01/19 12:49:27;;;;;;;15.93;7.60;;;;;;;;;;4780126;30;20040;-75
2022/01/19 12:52:20;;;;;;;18.67;7.57;;;;;;;;;;4793118;30;20051;-76
2022/01/19 12:55:22;;;;;;;24.33;10.52;;;;;;;;;;4790355;30;20407;-71
2022/01/19 12:58:22;;;;;;;20.63;9.95;;;;;;;;;;4791037;30;20044;-72
2022/01/19 13:01:10;;;;;;;23.27;7.95;;;;;;;;;;4790321;30;20059;-72
2022/01/19 13:03:57;;;;;;;27.48;11.80;;;;;;;;;;4796766;29;20051;-72
2022/01/19 13:06:44;;;;;;;25.95;12.32;;;;;;;;;;4777652;30;20059;-72
2022/01/19 13:09:36;;;;;;;24.70;12.40;;;;;;;;;;4800997;29;20409;-73
2022/01/19 13:12:32;;;;;;;78.95;40.38;;;;;;;;;;4808543;29;20047;-72
2022/01/19 13:15:17;;;;;;;100.82;47.65;;;;;;;;;;4807888;29;20054;-72
2022/01/19 13:18:03;;;;;;;14.57;7.53;;;;;;;;;;4808842;29;20514;-73
2022/01/19 13:20:51;;;;;;;20.45;8.02;;;;;;;;;;4815137;29;20047;-72
2022/01/19 13:24:06;;;;;;;21.30;11.15;;;;;;;;;;4814746;29;20497;-75
2022/01/19 13:26:54;;;;;;;;;;;;;;;;;;4809391;29;20050;-72
2022/01/19 13:29:42;;;;;;;15.38;6.30;;;;;;;;;;4800842;29;20352;-75
2022/01/19 13:32:27;;;;;;;17.23;7.90;;;;;;;;;;4808963;29;20486;-73
2022/01/19 13:35:14;;;;;;;22.90;8.88;;;;;;;;;;4808930;29;20055;-75
2022/01/19 13:38:10;;;;;;;21.08;7.50;;;;;;;;;;4808682;29;20050;-75
2022/01/19 13:41:09;;;;;;;17.77;8.70;;;;;;;;;;4809077;29;20047;-74
2022/01/19 13:44:07;;;;;;;16.48;7.53;;;;;;;;;;4814898;29;20051;-74
2022/01/19 13:47:14;;;;;;;23.90;7.82;;;;;;;;;;4802564;29;20059;-75
2022/01/19 13:50:01;;;;;;;22.40;7.65;;;;;;;;;;4808365;29;20393;-73
2022/01/19 13:52:47;;;;;;;20.13;8.52;;;;;;;;;;4808211;29;20482;-75
2022/01/19 13:55:33;;;;;;;26.95;10.77;;;;;;;;;;4815014;29;20043;-73
2022/01/19 13:58:20;;;;;;;16.45;8.00;;;;;;;;;;4814150;29;20058;-75
2022/01/19 14:01:12;;;;;;;21.20;7.93;;;;;;;;;;4814263;29;20406;-73
2022/01/19 14:04:04;;;;;;;22.15;8.15;;;;;;;;;;4814311;29;20055;-73
2022/01/19 14:06:50;;;;;;;22.20;8.80;;;;;;;;;;4800412;29;20047;-73
2022/01/19 14:09:36;;;;;;;17.00;7.75;;;;;;;;;;4808191;29;20046;-76
2022/01/19 14:12:28;;;;;;;20.15;8.38;;;;;;;;;;4813280;29;20055;-75
2022/01/19 14:15:16;;;;;;;24.05;9.32;;;;;;;;;;4800420;29;20050;-76
2022/01/19 14:18:11;;;;;;;20.42;8.68;;;;;;;;;;4813996;29;20055;-73
2022/01/19 14:21:08;;;;;;;16.70;8.45;;;;;;;;;;4807530;29;20047;-75
2022/01/19 14:24:02;;;;;;;30.45;14.82;;;;;;;;;;4814256;29;20394;-75
2022/01/19 14:26:59;;;;;;;30.65;13.32;;;;;;;;;;4813876;29;20047;-74
2022/01/19 14:30:08;;;;;;;29.02;10.93;;;;;;;;;;4807653;29;20063;-76
2022/01/19 14:33:09;;;;;;;23.63;12.32;;;;;;;;;;4808085;29;20474;-75
2022/01/19 14:35:56;;;;;;;35.05;13.82;;;;;;;;;;4806972;29;20051;-75
2022/01/19 14:38:44;;;;;;;27.92;14.02;;;;;;;;;;4807400;29;20055;-76
2022/01/19 14:41:33;;;;;;;53.45;22.77;;;;;;;;;;4800028;29;20047;-70
2022/01/19 14:44:32;;;;;;;40.47;20.15;;;;;;;;;;4807579;29;20054;-72
2022/01/19 14:47:48;;;;;;;42.78;19.17;;;;;;;;;;4807240;29;20501;-73
2022/01/19 14:50:35;;;;;;;64.68;24.25;;;;;;;;;;4791989;29;20413;-71
2022/01/19 14:53:21;;;;;;;51.88;22.13;;;;;;;;;;4806384;29;20076;-71
2022/01/19 14:56:06;;;;;;;43.15;23.13;;;;;;;;;;4799109;29;20051;-71
2022/01/19 14:59:09;;;;;;;59.70;28.17;;;;;;;;;;4806950;29;20055;-74
2022/01/19 15:01:57;;;;;;;49.13;23.50;;;;;;;;;;4807024;29;20058;-75
2022/01/19 15:04:44;;;;;;;46.40;25.65;;;;;;;;;;4807044;29;20055;-76
2022/01/19 15:07:30;;;;;;;53.92;27.65;;;;;;;;;;4793306;29;20051;-74
2022/01/19 15:10:15;;;;;;;44.97;22.48;;;;;;;;;;4793240;29;20062;-75
2022/01/19 15:13:05;;;;;;;48.33;26.27;;;;;;;;;;4813180;29;20046;-74
2022/01/19 15:15:51;;;;;;;61.65;29.73;;;;;;;;;;4812956;29;20059;-74
2022/01/19 15:18:36;;;;;;;64.68;32.25;;;;;;;;;;4799377;29;20055;-74
2022/01/19 15:21:22;;;;;;;62.33;30.75;;;;;;;;;;4806855;29;20050;-72
2022/01/19 15:24:08;;;;;;;58.13;30.02;;;;;;;;;;4806758;29;20043;-72
2022/01/19 15:26:54;;;;;;;68.18;31.95;;;;;;;;;;4812730;29;20050;-73
2022/01/19 15:29:39;;;;;;;169.27;72.03;;;;;;;;;;4808378;29;20502;-74
2022/01/19 15:32:27;;;;;;;217.93;92.32;;;;;;;;;;4812843;29;20410;-72
2022/01/19 15:35:13;;;;;;;281.35;112.07;;;;;;;;;;4807132;29;20050;-71
2022/01/19 15:38:00;;;;;;;249.52;103.85;;;;;;;;;;4805998;29;20490;-72
2022/01/19 15:40:47;;;;;;;253.70;116.90;;;;;;;;;;4812916;29;20039;-71
2022/01/19 15:43:32;;;;;;;238.80;113.45;;;;;;;;;;4806558;29;20047;-71
2022/01/19 15:46:18;;;;;;;250.30;110.78;;;;;;;;;;4812065;29;20050;-72
2022/01/19 15:49:08;;;;;;;281.40;125.57;;;;;;;;;;4812479;29;20050;-81
2022/01/19 15:51:53;;;;;;;180.70;81.53;;;;;;;;;;4793014;29;20058;-78
2022/01/19 15:54:39;;;;;;;164.70;73.05;;;;;;;;;;4806568;29;20050;-81
2022/01/19 15:57:25;;;;;;;143.15;59.58;;;;;;;;;;4806616;29;20054;-79
2022/01/19 16:00:11;;;;;;;131.65;54.85;;;;;;;;;;4806457;29;20054;-82
2022/01/19 16:03:02;;;;;;;119.68;52.58;;;;;;;;;;4792955;29;20410;-80
2022/01/19 16:05:51;;;;;;;114.53;51.65;;;;;;;;;;4805889;29;20051;-78
2022/01/19 16:08:42;;;;;;;101.68;44.78;;;;;;;;;;4805839;29;20063;-81
2022/01/19 16:11:26;;;;;;;96.97;38.72;;;;;;;;;;4812709;29;20490;-82
2022/01/19 16:14:16;;;;;;;104.55;44.58;;;;;;;;;;4806501;29;20055;-80
2022/01/19 16:17:02;;;;;;;126.22;56.47;;;;;;;;;;4812358;29;20051;-81
2022/01/19 16:19:49;;;;;;;140.20;60.17;;;;;;;;;;4805836;29;20050;-78
2022/01/19 16:28:44;;;;;;;216.85;98.65;;;;;;;;;;4805284;29;20055;-78
2022/01/19 16:31:30;;;;;;;178.77;80.47;;;;;;;;;;4793135;29;20063;-76
2022/01/19 16:34:18;;;;;;;130.75;52.22;;;;;;;;;;4805481;29;20406;-79
2022/01/19 16:37:10;;;;;;;184.60;74.93;;;;;;;;;;4812308;29;20354;-78
2022/01/19 16:39:55;;;;;;;169.88;68.22;;;;;;;;;;4806123;29;20055;-78
2022/01/19 16:42:41;;;;;;;180.98;71.07;;;;;;;;;;4805878;29;20046;-78
2022/01/19 16:45:29;;;;;;;202.98;82.75;;;;;;;;;;4806239;29;20047;-79
2022/01/19 16:48:20;;;;;;;189.32;77.30;;;;;;;;;;4804427;29;20055;-79
2022/01/19 16:51:11;;;;;;;188.77;79.93;;;;;;;;;;4806088;29;20054;-79
2022/01/19 16:53:57;;;;;;;219.05;97.28;;;;;;;;;;4806331;29;20494;-77
2022/01/19 16:56:42;;;;;;;199.13;88.53;;;;;;;;;;4811882;29;20051;-77
2022/01/19 16:59:27;;;;;;;182.70;84.75;;;;;;;;;;4812028;29;20051;-78
2022/01/19 17:02:13;;;;;;;154.57;71.72;;;;;;;;;;4797340;29;20498;-79
2022/01/19 17:04:59;;;;;;;160.55;76.68;;;;;;;;;;4798234;29;20367;-78
2022/01/19 17:07:45;;;;;;;178.05;83.05;;;;;;;;;;4804743;29;20043;-79
2022/01/19 17:10:31;;;;;;;184.70;83.57;;;;;;;;;;4792550;29;20449;-78
2022/01/19 17:13:44;;;;;;;170.48;79.57;;;;;;;;;;4792036;29;20074;-78
2022/01/19 17:19:18;;;;;;;142.02;64.95;;;;;;;;;;4808839;29;20059;-79
2022/01/19 17:22:04;;;;;;;148.88;65.32;;;;;;;;;;4808610;29;20054;-78
2022/01/19 17:24:51;;;;;;;157.75;70.88;;;;;;;;;;4814136;29;20046;-79
2022/01/19 17:27:38;;;;;;;156.98;67.13;;;;;;;;;;4808655;29;20055;-78
2022/01/19 17:30:23;;;;;;;144.63;62.55;;;;;;;;;;4795761;29;20411;-78
2022/01/19 17:33:09;;;;;;;251.93;96.47;;;;;;;;;;4808370;29;20055;-79
2022/01/19 17:35:55;;;;;;;180.40;73.00;;;;;;;;;;4808651;29;20051;-78
2022/01/19 17:38:42;;;;;;;143.30;59.70;;;;;;;;;;4814215;29;20051;-83
2022/01/19 17:41:27;;;;;;;140.98;61.33;;;;;;;;;;4809532;29;20047;-79
2022/01/19 17:44:13;;;;;;;145.80;61.33;;;;;;;;;;4814716;29;20046;-81
2022/01/19 17:50:27;;;;;;;186.15;77.47;;;;;;;;;;4802512;29;20047;-80
2022/01/19 17:53:15;;;;;;;244.90;103.97;;;;;;;;;;4808715;29;20043;-81
2022/01/19 17:56:01;;;;;;;220.25;100.97;;;;;;;;;;4810142;29;20367;-81
2022/01/19 17:58:50;;;;;;;251.40;113.53;;;;;;;;;;4808990;29;20047;-81
2022/01/19 18:01:35;;;;;;;281.58;131.77;;;;;;;;;;4815261;29;20482;-80
2022/01/19 18:04:23;;;;;;;262.80;127.43;;;;;;;;;;4808982;29;20055;-81
2022/01/19 18:07:09;;;;;;;245.15;116.35;;;;;;;;;;4807898;29;20051;-81
2022/01/19 18:09:56;;;;;;;234.55;109.63;;;;;;;;;;4809616;29;20399;-80
2022/01/19 18:12:43;;;;;;;205.93;84.30;;;;;;;;;;4814723;29;20046;-81
2022/01/19 18:15:29;;;;;;;209.27;88.90;;;;;;;;;;4814542;29;20042;-80